sensor_id;sensor_type;location;lat;lon;timestamp;temperature;humidity
38436;DHT22;24220;48.168;14.024;2023-06-26T00:00:04;24.50;60.50
38436;DHT22;24220;48.168;14.024;2023-06-26T00:02:34;24.50;60.30
38436;DHT22;24220;48.168;14.024;2023-06-26T00:05:05;24.40;60.20
38436;DHT22;24220;48.168;14.024;2023-06-26T00:07:36;24.40;60.50
38436;DHT22;24220;48.168;14.024;2023-06-26T00:10:04;24.40;60.50
38436;DHT22;24220;48.168;14.024;2023-06-26T00:12:32;24.40;60.30
38436;DHT22;24220;48.168;14.024;2023-06-26T00:15:00;24.30;60.30
38436;DHT22;24220;48.168;14.024;2023-06-26T00:17:30;24.30;60.20
38436;DHT22;24220;48.168;14.024;2023-06-26T00:19:57;24.30;60.50
38436;DHT22;24220;48.168;14.024;2023-06-26T00:22:25;24.20;60.50
38436;DHT22;24220;48.168;14.024;2023-06-26T00:24:52;24.20;60.60
38436;DHT22;24220;48.168;14.024;2023-06-26T00:27:20;24.10;60.60
38436;DHT22;24220;48.168;14.024;2023-06-26T00:29:47;24.10;60.60
38436;DHT22;24220;48.168;14.024;2023-06-26T00:32:15;24.10;60.80
38436;DHT22;24220;48.168;14.024;2023-06-26T00:34:44;24.00;60.80
38436;DHT22;24220;48.168;14.024;2023-06-26T00:37:16;24.00;60.80
38436;DHT22;24220;48.168;14.024;2023-06-26T00:39:43;24.00;61.10
38436;DHT22;24220;48.168;14.024;2023-06-26T00:42:13;23.90;61.00
38436;DHT22;24220;48.168;14.024;2023-06-26T00:44:40;23.90;61.00
38436;DHT22;24220;48.168;14.024;2023-06-26T00:47:07;23.90;61.20
38436;DHT22;24220;48.168;14.024;2023-06-26T00:49:35;23.80;61.20
38436;DHT22;24220;48.168;14.024;2023-06-26T00:52:03;23.80;61.40
38436;DHT22;24220;48.168;14.024;2023-06-26T00:54:31;23.80;61.50
38436;DHT22;24220;48.168;14.024;2023-06-26T00:56:59;23.70;61.20
38436;DHT22;24220;48.168;14.024;2023-06-26T00:59:26;23.70;61.30
38436;DHT22;24220;48.168;14.024;2023-06-26T01:01:54;23.70;61.30
38436;DHT22;24220;48.168;14.024;2023-06-26T01:04:21;23.60;61.20
38436;DHT22;24220;48.168;14.024;2023-06-26T01:06:49;23.60;61.70
38436;DHT22;24220;48.168;14.024;2023-06-26T01:09:20;23.60;62.60
38436;DHT22;24220;48.168;14.024;2023-06-26T01:11:48;23.60;61.70
38436;DHT22;24220;48.168;14.024;2023-06-26T01:14:15;23.50;61.70
38436;DHT22;24220;48.168;14.024;2023-06-26T01:16:45;23.50;61.90
38436;DHT22;24220;48.168;14.024;2023-06-26T01:19:25;23.50;62.00
38436;DHT22;24220;48.168;14.024;2023-06-26T01:24:47;23.50;61.70
38436;DHT22;24220;48.168;14.024;2023-06-26T01:27:21;23.40;61.40
38436;DHT22;24220;48.168;14.024;2023-06-26T01:29:50;23.40;61.30
38436;DHT22;24220;48.168;14.024;2023-06-26T01:32:18;23.30;61.80
38436;DHT22;24220;48.168;14.024;2023-06-26T01:34:46;23.20;61.40
38436;DHT22;24220;48.168;14.024;2023-06-26T01:37:13;23.20;61.50
38436;DHT22;24220;48.168;14.024;2023-06-26T01:39:41;23.20;61.50
38436;DHT22;24220;48.168;14.024;2023-06-26T01:42:08;23.20;61.70
38436;DHT22;24220;48.168;14.024;2023-06-26T01:44:42;23.10;61.60
38436;DHT22;24220;48.168;14.024;2023-06-26T01:47:16;23.10;61.50
38436;DHT22;24220;48.168;14.024;2023-06-26T01:50:14;23.10;61.30
38436;DHT22;24220;48.168;14.024;2023-06-26T01:53:10;23.10;61.70
38436;DHT22;24220;48.168;14.024;2023-06-26T01:55:46;23.00;61.90
38436;DHT22;24220;48.168;14.024;2023-06-26T01:58:17;23.00;62.10
38436;DHT22;24220;48.168;14.024;2023-06-26T02:00:46;22.90;62.00
38436;DHT22;24220;48.168;14.024;2023-06-26T02:03:13;22.90;61.70
38436;DHT22;24220;48.168;14.024;2023-06-26T02:05:41;22.90;62.00
38436;DHT22;24220;48.168;14.024;2023-06-26T02:08:09;22.90;61.80
38436;DHT22;24220;48.168;14.024;2023-06-26T02:10:37;22.80;61.70
38436;DHT22;24220;48.168;14.024;2023-06-26T02:13:05;22.80;61.70
38436;DHT22;24220;48.168;14.024;2023-06-26T02:15:32;22.80;62.00
38436;DHT22;24220;48.168;14.024;2023-06-26T02:17:59;22.80;61.90
38436;DHT22;24220;48.168;14.024;2023-06-26T02:20:27;22.80;62.10
38436;DHT22;24220;48.168;14.024;2023-06-26T02:22:54;22.70;62.30
38436;DHT22;24220;48.168;14.024;2023-06-26T02:25:24;22.70;62.30
38436;DHT22;24220;48.168;14.024;2023-06-26T02:27:54;22.70;62.40
38436;DHT22;24220;48.168;14.024;2023-06-26T02:30:22;22.70;62.50
38436;DHT22;24220;48.168;14.024;2023-06-26T02:32:49;22.70;62.20
38436;DHT22;24220;48.168;14.024;2023-06-26T02:35:19;22.60;62.40
38436;DHT22;24220;48.168;14.024;2023-06-26T02:37:46;22.60;62.10
38436;DHT22;24220;48.168;14.024;2023-06-26T02:40:13;22.60;62.10
38436;DHT22;24220;48.168;14.024;2023-06-26T02:42:43;22.60;62.10
38436;DHT22;24220;48.168;14.024;2023-06-26T02:45:10;22.50;62.10
38436;DHT22;24220;48.168;14.024;2023-06-26T02:47:37;22.50;62.10
38436;DHT22;24220;48.168;14.024;2023-06-26T02:50:07;22.50;62.10
38436;DHT22;24220;48.168;14.024;2023-06-26T02:52:35;22.50;62.10
38436;DHT22;24220;48.168;14.024;2023-06-26T02:55:02;22.50;62.30
38436;DHT22;24220;48.168;14.024;2023-06-26T02:57:30;22.50;62.40
38436;DHT22;24220;48.168;14.024;2023-06-26T02:59:57;22.40;62.30
38436;DHT22;24220;48.168;14.024;2023-06-26T03:02:25;22.40;62.10
38436;DHT22;24220;48.168;14.024;2023-06-26T03:04:52;22.40;62.30
38436;DHT22;24220;48.168;14.024;2023-06-26T03:07:20;22.30;62.20
38436;DHT22;24220;48.168;14.024;2023-06-26T03:09:49;22.30;62.30
38436;DHT22;24220;48.168;14.024;2023-06-26T03:12:16;22.30;62.40
38436;DHT22;24220;48.168;14.024;2023-06-26T03:14:44;22.30;62.40
38436;DHT22;24220;48.168;14.024;2023-06-26T03:17:13;22.20;62.20
38436;DHT22;24220;48.168;14.024;2023-06-26T03:19:41;22.20;63.00
38436;DHT22;24220;48.168;14.024;2023-06-26T03:22:08;22.20;63.30
38436;DHT22;24220;48.168;14.024;2023-06-26T03:24:35;22.20;63.10
38436;DHT22;24220;48.168;14.024;2023-06-26T03:27:03;22.10;63.00
38436;DHT22;24220;48.168;14.024;2023-06-26T03:29:33;22.10;63.20
38436;DHT22;24220;48.168;14.024;2023-06-26T03:32:00;22.10;62.90
38436;DHT22;24220;48.168;14.024;2023-06-26T03:34:27;22.00;63.00
38436;DHT22;24220;48.168;14.024;2023-06-26T03:36:59;22.00;63.00
38436;DHT22;24220;48.168;14.024;2023-06-26T03:39:27;22.00;63.20
38436;DHT22;24220;48.168;14.024;2023-06-26T03:41:57;21.90;63.30
38436;DHT22;24220;48.168;14.024;2023-06-26T03:44:27;21.90;63.10
38436;DHT22;24220;48.168;14.024;2023-06-26T03:46:55;21.90;63.20
38436;DHT22;24220;48.168;14.024;2023-06-26T03:49:22;21.90;63.20
38436;DHT22;24220;48.168;14.024;2023-06-26T03:51:52;21.90;63.50
38436;DHT22;24220;48.168;14.024;2023-06-26T03:54:21;21.80;63.60
38436;DHT22;24220;48.168;14.024;2023-06-26T03:56:53;21.80;63.60
38436;DHT22;24220;48.168;14.024;2023-06-26T03:59:20;21.80;63.60
38436;DHT22;24220;48.168;14.024;2023-06-26T04:01:48;21.80;63.90
38436;DHT22;24220;48.168;14.024;2023-06-26T04:04:19;21.70;63.80
38436;DHT22;24220;48.168;14.024;2023-06-26T04:06:47;21.70;63.80
38436;DHT22;24220;48.168;14.024;2023-06-26T04:09:14;21.70;63.80
38436;DHT22;24220;48.168;14.024;2023-06-26T04:11:42;21.70;63.70
38436;DHT22;24220;48.168;14.024;2023-06-26T04:14:09;21.70;64.00
38436;DHT22;24220;48.168;14.024;2023-06-26T04:16:39;21.60;64.30
38436;DHT22;24220;48.168;14.024;2023-06-26T04:19:07;21.70;64.40
38436;DHT22;24220;48.168;14.024;2023-06-26T04:21:35;21.60;64.30
38436;DHT22;24220;48.168;14.024;2023-06-26T04:24:02;21.60;64.20
38436;DHT22;24220;48.168;14.024;2023-06-26T04:26:31;21.60;64.20
38436;DHT22;24220;48.168;14.024;2023-06-26T04:29:03;21.60;64.50
38436;DHT22;24220;48.168;14.024;2023-06-26T04:31:31;21.60;64.60
38436;DHT22;24220;48.168;14.024;2023-06-26T04:33:58;21.60;64.60
38436;DHT22;24220;48.168;14.024;2023-06-26T04:36:26;21.60;65.10
38436;DHT22;24220;48.168;14.024;2023-06-26T04:38:58;21.60;64.90
38436;DHT22;24220;48.168;14.024;2023-06-26T04:41:25;21.60;65.00
38436;DHT22;24220;48.168;14.024;2023-06-26T04:43:53;21.60;65.20
38436;DHT22;24220;48.168;14.024;2023-06-26T04:46:20;21.50;65.10
38436;DHT22;24220;48.168;14.024;2023-06-26T04:48:48;21.50;65.40
38436;DHT22;24220;48.168;14.024;2023-06-26T04:51:15;21.60;65.30
38436;DHT22;24220;48.168;14.024;2023-06-26T04:53:43;21.60;65.40
38436;DHT22;24220;48.168;14.024;2023-06-26T04:56:10;21.60;65.40
38436;DHT22;24220;48.168;14.024;2023-06-26T04:58:40;21.60;65.50
38436;DHT22;24220;48.168;14.024;2023-06-26T05:01:07;21.60;65.50
38436;DHT22;24220;48.168;14.024;2023-06-26T05:03:35;21.60;65.90
38436;DHT22;24220;48.168;14.024;2023-06-26T05:06:06;21.60;65.90
38436;DHT22;24220;48.168;14.024;2023-06-26T05:08:36;21.60;66.00
38436;DHT22;24220;48.168;14.024;2023-06-26T05:11:03;21.60;66.10
38436;DHT22;24220;48.168;14.024;2023-06-26T05:13:30;21.60;66.10
38436;DHT22;24220;48.168;14.024;2023-06-26T05:15:58;21.60;66.10
38436;DHT22;24220;48.168;14.024;2023-06-26T05:18:25;21.60;65.80
38436;DHT22;24220;48.168;14.024;2023-06-26T05:20:53;21.60;65.70
38436;DHT22;24220;48.168;14.024;2023-06-26T05:23:23;21.60;65.70
38436;DHT22;24220;48.168;14.024;2023-06-26T05:25:55;21.60;65.70
38436;DHT22;24220;48.168;14.024;2023-06-26T05:28:24;21.60;66.30
38436;DHT22;24220;48.168;14.024;2023-06-26T05:30:57;21.70;67.00
38436;DHT22;24220;48.168;14.024;2023-06-26T05:33:27;21.70;67.10
38436;DHT22;24220;48.168;14.024;2023-06-26T05:35:57;21.60;67.30
38436;DHT22;24220;48.168;14.024;2023-06-26T05:38:26;21.70;67.50
38436;DHT22;24220;48.168;14.024;2023-06-26T05:40:54;21.70;67.30
38436;DHT22;24220;48.168;14.024;2023-06-26T05:43:21;21.70;67.70
38436;DHT22;24220;48.168;14.024;2023-06-26T05:45:56;21.70;67.80
38436;DHT22;24220;48.168;14.024;2023-06-26T05:48:24;21.70;68.20
38436;DHT22;24220;48.168;14.024;2023-06-26T05:50:52;21.70;68.70
38436;DHT22;24220;48.168;14.024;2023-06-26T05:53:22;21.70;69.00
38436;DHT22;24220;48.168;14.024;2023-06-26T05:55:52;21.70;70.10
38436;DHT22;24220;48.168;14.024;2023-06-26T05:58:20;21.80;69.30
38436;DHT22;24220;48.168;14.024;2023-06-26T06:00:50;21.80;69.90
38436;DHT22;24220;48.168;14.024;2023-06-26T06:03:20;21.80;69.90
38436;DHT22;24220;48.168;14.024;2023-06-26T06:05:48;21.80;69.90
38436;DHT22;24220;48.168;14.024;2023-06-26T06:08:15;21.80;70.30
38436;DHT22;24220;48.168;14.024;2023-06-26T06:10:44;21.80;70.20
38436;DHT22;24220;48.168;14.024;2023-06-26T06:13:14;21.90;70.30
38436;DHT22;24220;48.168;14.024;2023-06-26T06:15:44;21.90;70.40
38436;DHT22;24220;48.168;14.024;2023-06-26T06:18:13;21.90;70.80
38436;DHT22;24220;48.168;14.024;2023-06-26T06:20:41;21.90;71.10
38436;DHT22;24220;48.168;14.024;2023-06-26T06:23:11;21.90;71.10
38436;DHT22;24220;48.168;14.024;2023-06-26T06:25:40;22.00;71.50
38436;DHT22;24220;48.168;14.024;2023-06-26T06:28:08;22.00;71.60
38436;DHT22;24220;48.168;14.024;2023-06-26T06:30:37;22.10;71.50
38436;DHT22;24220;48.168;14.024;2023-06-26T06:33:13;22.10;71.60
38436;DHT22;24220;48.168;14.024;2023-06-26T06:35:40;22.20;71.10
38436;DHT22;24220;48.168;14.024;2023-06-26T06:38:08;22.20;70.90
38436;DHT22;24220;48.168;14.024;2023-06-26T06:40:35;22.20;70.60
38436;DHT22;24220;48.168;14.024;2023-06-26T06:43:03;22.30;70.50
38436;DHT22;24220;48.168;14.024;2023-06-26T06:45:33;22.30;70.00
38436;DHT22;24220;48.168;14.024;2023-06-26T06:48:00;22.40;70.20
38436;DHT22;24220;48.168;14.024;2023-06-26T06:50:27;22.50;69.90
38436;DHT22;24220;48.168;14.024;2023-06-26T06:52:57;22.50;69.70
38436;DHT22;24220;48.168;14.024;2023-06-26T06:55:24;22.50;68.80
38436;DHT22;24220;48.168;14.024;2023-06-26T06:57:53;22.60;69.20
38436;DHT22;24220;48.168;14.024;2023-06-26T07:00:20;22.60;69.40
38436;DHT22;24220;48.168;14.024;2023-06-26T07:02:47;22.70;69.30
38436;DHT22;24220;48.168;14.024;2023-06-26T07:05:17;22.70;68.70
38436;DHT22;24220;48.168;14.024;2023-06-26T07:07:47;22.80;69.00
38436;DHT22;24220;48.168;14.024;2023-06-26T07:10:14;22.80;68.80
38436;DHT22;24220;48.168;14.024;2023-06-26T07:12:42;22.80;68.70
38436;DHT22;24220;48.168;14.024;2023-06-26T07:15:11;22.90;68.70
38436;DHT22;24220;48.168;14.024;2023-06-26T07:17:38;22.90;68.90
38436;DHT22;24220;48.168;14.024;2023-06-26T07:20:09;22.90;68.20
38436;DHT22;24220;48.168;14.024;2023-06-26T07:22:45;23.00;68.50
38436;DHT22;24220;48.168;14.024;2023-06-26T07:25:13;23.10;67.90
38436;DHT22;24220;48.168;14.024;2023-06-26T07:27:41;23.10;67.90
38436;DHT22;24220;48.168;14.024;2023-06-26T07:30:11;23.20;68.10
38436;DHT22;24220;48.168;14.024;2023-06-26T07:32:39;23.20;68.00
38436;DHT22;24220;48.168;14.024;2023-06-26T07:35:08;23.30;67.90
38436;DHT22;24220;48.168;14.024;2023-06-26T07:37:35;23.30;67.40
38436;DHT22;24220;48.168;14.024;2023-06-26T07:40:03;23.40;67.80
38436;DHT22;24220;48.168;14.024;2023-06-26T07:42:33;23.40;67.70
38436;DHT22;24220;48.168;14.024;2023-06-26T07:45:01;23.50;66.90
38436;DHT22;24220;48.168;14.024;2023-06-26T07:47:28;23.50;66.00
38436;DHT22;24220;48.168;14.024;2023-06-26T07:49:56;23.60;66.50
38436;DHT22;24220;48.168;14.024;2023-06-26T07:52:23;23.60;66.80
38436;DHT22;24220;48.168;14.024;2023-06-26T07:54:51;23.70;67.00
38436;DHT22;24220;48.168;14.024;2023-06-26T07:57:21;23.70;65.70
38436;DHT22;24220;48.168;14.024;2023-06-26T07:59:48;23.80;66.30
38436;DHT22;24220;48.168;14.024;2023-06-26T08:02:19;23.90;65.80
38436;DHT22;24220;48.168;14.024;2023-06-26T08:04:46;23.90;66.20
38436;DHT22;24220;48.168;14.024;2023-06-26T08:07:14;24.00;66.30
38436;DHT22;24220;48.168;14.024;2023-06-26T08:09:41;24.00;66.80
38436;DHT22;24220;48.168;14.024;2023-06-26T08:12:09;24.10;67.50
38436;DHT22;24220;48.168;14.024;2023-06-26T08:14:39;24.10;65.10
38436;DHT22;24220;48.168;14.024;2023-06-26T08:17:06;24.20;64.30
38436;DHT22;24220;48.168;14.024;2023-06-26T08:19:38;24.20;64.60
38436;DHT22;24220;48.168;14.024;2023-06-26T08:22:05;24.30;65.30
38436;DHT22;24220;48.168;14.024;2023-06-26T08:24:33;24.40;66.10
38436;DHT22;24220;48.168;14.024;2023-06-26T08:27:03;24.40;64.40
38436;DHT22;24220;48.168;14.024;2023-06-26T08:29:30;24.50;65.00
38436;DHT22;24220;48.168;14.024;2023-06-26T08:32:00;24.60;65.20
38436;DHT22;24220;48.168;14.024;2023-06-26T08:34:29;24.60;66.00
38436;DHT22;24220;48.168;14.024;2023-06-26T08:36:56;24.70;65.70
38436;DHT22;24220;48.168;14.024;2023-06-26T08:39:23;24.80;64.80
38436;DHT22;24220;48.168;14.024;2023-06-26T08:41:51;24.80;63.20
38436;DHT22;24220;48.168;14.024;2023-06-26T08:44:21;24.90;63.50
38436;DHT22;24220;48.168;14.024;2023-06-26T08:46:54;24.90;64.80
38436;DHT22;24220;48.168;14.024;2023-06-26T08:49:27;25.00;64.80
38436;DHT22;24220;48.168;14.024;2023-06-26T08:52:13;25.00;65.00
38436;DHT22;24220;48.168;14.024;2023-06-26T08:54:46;25.10;64.80
38436;DHT22;24220;48.168;14.024;2023-06-26T08:57:18;25.10;64.70
38436;DHT22;24220;48.168;14.024;2023-06-26T08:59:47;25.20;64.90
38436;DHT22;24220;48.168;14.024;2023-06-26T09:02:15;25.20;64.00
38436;DHT22;24220;48.168;14.024;2023-06-26T09:04:43;25.30;64.00
38436;DHT22;24220;48.168;14.024;2023-06-26T09:07:10;25.30;65.20
38436;DHT22;24220;48.168;14.024;2023-06-26T09:09:40;25.40;64.90
38436;DHT22;24220;48.168;14.024;2023-06-26T09:12:08;25.40;65.70
38436;DHT22;24220;48.168;14.024;2023-06-26T09:14:42;25.50;65.10
38436;DHT22;24220;48.168;14.024;2023-06-26T09:17:09;25.60;64.70
38436;DHT22;24220;48.168;14.024;2023-06-26T09:19:39;25.60;64.20
38436;DHT22;24220;48.168;14.024;2023-06-26T09:22:11;25.70;63.20
38436;DHT22;24220;48.168;14.024;2023-06-26T09:24:41;25.70;63.20
38436;DHT22;24220;48.168;14.024;2023-06-26T09:27:09;25.80;63.10
38436;DHT22;24220;48.168;14.024;2023-06-26T09:29:38;25.90;62.80
38436;DHT22;24220;48.168;14.024;2023-06-26T09:32:08;25.90;62.30
38436;DHT22;24220;48.168;14.024;2023-06-26T09:34:40;26.00;62.40
38436;DHT22;24220;48.168;14.024;2023-06-26T09:37:08;26.00;62.90
38436;DHT22;24220;48.168;14.024;2023-06-26T09:39:35;26.10;61.70
38436;DHT22;24220;48.168;14.024;2023-06-26T09:42:03;26.10;62.80
38436;DHT22;24220;48.168;14.024;2023-06-26T09:44:33;26.20;61.70
38436;DHT22;24220;48.168;14.024;2023-06-26T09:47:04;26.30;61.40
38436;DHT22;24220;48.168;14.024;2023-06-26T09:49:31;26.30;61.40
38436;DHT22;24220;48.168;14.024;2023-06-26T09:52:00;26.30;60.80
38436;DHT22;24220;48.168;14.024;2023-06-26T09:54:29;26.30;62.30
38436;DHT22;24220;48.168;14.024;2023-06-26T09:57:07;26.40;62.00
38436;DHT22;24220;48.168;14.024;2023-06-26T09:59:35;26.50;61.20
38436;DHT22;24220;48.168;14.024;2023-06-26T10:02:03;26.60;61.30
38436;DHT22;24220;48.168;14.024;2023-06-26T10:04:31;26.60;61.70
38436;DHT22;24220;48.168;14.024;2023-06-26T10:07:01;26.70;60.10
38436;DHT22;24220;48.168;14.024;2023-06-26T10:09:31;26.80;61.10
38436;DHT22;24220;48.168;14.024;2023-06-26T10:12:03;26.80;60.80
38436;DHT22;24220;48.168;14.024;2023-06-26T10:14:41;26.90;61.40
38436;DHT22;24220;48.168;14.024;2023-06-26T10:17:16;27.00;61.70
38436;DHT22;24220;48.168;14.024;2023-06-26T10:19:45;27.00;61.10
38436;DHT22;24220;48.168;14.024;2023-06-26T10:22:17;27.10;62.00
38436;DHT22;24220;48.168;14.024;2023-06-26T10:24:48;27.20;60.30
38436;DHT22;24220;48.168;14.024;2023-06-26T10:27:18;27.30;61.50
38436;DHT22;24220;48.168;14.024;2023-06-26T10:29:52;27.40;61.20
38436;DHT22;24220;48.168;14.024;2023-06-26T10:32:22;27.40;61.70
38436;DHT22;24220;48.168;14.024;2023-06-26T10:34:51;27.50;60.50
38436;DHT22;24220;48.168;14.024;2023-06-26T10:37:19;27.60;61.60
38436;DHT22;24220;48.168;14.024;2023-06-26T10:39:47;27.70;61.60
38436;DHT22;24220;48.168;14.024;2023-06-26T10:42:17;27.70;61.00
38436;DHT22;24220;48.168;14.024;2023-06-26T10:44:47;27.80;59.90
38436;DHT22;24220;48.168;14.024;2023-06-26T10:47:31;27.90;59.20
38436;DHT22;24220;48.168;14.024;2023-06-26T10:50:19;27.90;58.50
38436;DHT22;24220;48.168;14.024;2023-06-26T10:53:09;28.10;58.50
38436;DHT22;24220;48.168;14.024;2023-06-26T10:55:42;28.10;59.40
38436;DHT22;24220;48.168;14.024;2023-06-26T11:03:45;28.30;59.30
38436;DHT22;24220;48.168;14.024;2023-06-26T11:06:17;28.40;59.20
38436;DHT22;24220;48.168;14.024;2023-06-26T11:08:52;28.40;59.20
38436;DHT22;24220;48.168;14.024;2023-06-26T11:14:27;28.60;58.70
38436;DHT22;24220;48.168;14.024;2023-06-26T11:16:56;28.70;59.40
38436;DHT22;24220;48.168;14.024;2023-06-26T11:19:26;28.70;58.60
38436;DHT22;24220;48.168;14.024;2023-06-26T11:22:04;28.80;58.50
38436;DHT22;24220;48.168;14.024;2023-06-26T11:24:32;28.90;57.90
38436;DHT22;24220;48.168;14.024;2023-06-26T11:27:01;29.00;57.10
38436;DHT22;24220;48.168;14.024;2023-06-26T11:29:30;29.00;56.40
38436;DHT22;24220;48.168;14.024;2023-06-26T11:32:02;29.00;57.50
38436;DHT22;24220;48.168;14.024;2023-06-26T11:34:33;29.10;56.90
38436;DHT22;24220;48.168;14.024;2023-06-26T11:37:03;29.20;56.30
38436;DHT22;24220;48.168;14.024;2023-06-26T11:39:31;29.30;55.70
38436;DHT22;24220;48.168;14.024;2023-06-26T11:42:01;29.30;56.70
38436;DHT22;24220;48.168;14.024;2023-06-26T11:44:31;29.30;55.40
38436;DHT22;24220;48.168;14.024;2023-06-26T11:47:05;29.40;54.70
38436;DHT22;24220;48.168;14.024;2023-06-26T11:49:35;29.50;54.20
38436;DHT22;24220;48.168;14.024;2023-06-26T11:52:03;29.60;55.90
38436;DHT22;24220;48.168;14.024;2023-06-26T11:54:30;29.60;56.10
38436;DHT22;24220;48.168;14.024;2023-06-26T11:56:59;29.60;56.50
38436;DHT22;24220;48.168;14.024;2023-06-26T11:59:39;29.70;55.80
38436;DHT22;24220;48.168;14.024;2023-06-26T12:02:11;29.80;54.70
38436;DHT22;24220;48.168;14.024;2023-06-26T12:04:42;29.90;55.50
38436;DHT22;24220;48.168;14.024;2023-06-26T12:07:10;29.90;54.70
38436;DHT22;24220;48.168;14.024;2023-06-26T12:09:44;29.90;54.10
38436;DHT22;24220;48.168;14.024;2023-06-26T12:12:16;29.90;54.30
38436;DHT22;24220;48.168;14.024;2023-06-26T12:14:44;30.00;52.90
38436;DHT22;24220;48.168;14.024;2023-06-26T12:17:14;30.00;53.40
38436;DHT22;24220;48.168;14.024;2023-06-26T12:19:46;30.10;55.30
38436;DHT22;24220;48.168;14.024;2023-06-26T12:22:18;30.20;53.20
38436;DHT22;24220;48.168;14.024;2023-06-26T12:24:46;30.20;53.00
38436;DHT22;24220;48.168;14.024;2023-06-26T12:27:17;30.30;53.10
38436;DHT22;24220;48.168;14.024;2023-06-26T12:29:53;30.30;52.10
38436;DHT22;24220;48.168;14.024;2023-06-26T12:32:24;30.40;52.00
38436;DHT22;24220;48.168;14.024;2023-06-26T12:34:56;30.50;53.90
38436;DHT22;24220;48.168;14.024;2023-06-26T12:37:27;30.50;53.60
38436;DHT22;24220;48.168;14.024;2023-06-26T12:39:56;30.60;53.20
38436;DHT22;24220;48.168;14.024;2023-06-26T12:42:30;30.60;53.90
38436;DHT22;24220;48.168;14.024;2023-06-26T12:45:10;30.70;54.70
38436;DHT22;24220;48.168;14.024;2023-06-26T12:48:09;30.80;55.00
38436;DHT22;24220;48.168;14.024;2023-06-26T12:50:47;30.90;54.00
38436;DHT22;24220;48.168;14.024;2023-06-26T12:53:15;31.00;53.90
38436;DHT22;24220;48.168;14.024;2023-06-26T12:55:42;31.00;52.80
38436;DHT22;24220;48.168;14.024;2023-06-26T12:58:12;31.10;51.40
38436;DHT22;24220;48.168;14.024;2023-06-26T13:00:41;31.20;52.70
38436;DHT22;24220;48.168;14.024;2023-06-26T13:03:12;31.40;51.50
38436;DHT22;24220;48.168;14.024;2023-06-26T13:05:44;31.40;52.40
38436;DHT22;24220;48.168;14.024;2023-06-26T13:08:11;31.50;50.20
38436;DHT22;24220;48.168;14.024;2023-06-26T13:10:39;31.60;50.30
38436;DHT22;24220;48.168;14.024;2023-06-26T13:13:07;31.70;51.40
38436;DHT22;24220;48.168;14.024;2023-06-26T13:15:35;31.80;49.20
38436;DHT22;24220;48.168;14.024;2023-06-26T13:18:03;31.90;47.80
38436;DHT22;24220;48.168;14.024;2023-06-26T13:20:33;31.90;48.80
38436;DHT22;24220;48.168;14.024;2023-06-26T13:23:03;32.00;49.10
38436;DHT22;24220;48.168;14.024;2023-06-26T13:25:33;32.10;48.70
38436;DHT22;24220;48.168;14.024;2023-06-26T13:28:01;32.20;50.50
38436;DHT22;24220;48.168;14.024;2023-06-26T13:30:28;32.30;48.00
38436;DHT22;24220;48.168;14.024;2023-06-26T13:32:59;32.30;47.30
38436;DHT22;24220;48.168;14.024;2023-06-26T13:35:26;32.40;47.40
38436;DHT22;24220;48.168;14.024;2023-06-26T13:37:56;32.50;46.20
38436;DHT22;24220;48.168;14.024;2023-06-26T13:40:23;32.60;45.90
38436;DHT22;24220;48.168;14.024;2023-06-26T13:42:51;32.70;45.90
38436;DHT22;24220;48.168;14.024;2023-06-26T13:45:18;32.80;46.30
38436;DHT22;24220;48.168;14.024;2023-06-26T13:47:57;32.90;46.70
38436;DHT22;24220;48.168;14.024;2023-06-26T13:50:25;33.00;45.30
38436;DHT22;24220;48.168;14.024;2023-06-26T13:53:04;33.10;46.50
38436;DHT22;24220;48.168;14.024;2023-06-26T13:55:32;33.10;43.10
38436;DHT22;24220;48.168;14.024;2023-06-26T13:58:00;33.20;45.10
38436;DHT22;24220;48.168;14.024;2023-06-26T14:00:32;33.30;45.50
38436;DHT22;24220;48.168;14.024;2023-06-26T14:03:01;33.30;45.60
38436;DHT22;24220;48.168;14.024;2023-06-26T14:05:30;33.30;45.00
38436;DHT22;24220;48.168;14.024;2023-06-26T14:08:04;33.30;44.30
38436;DHT22;24220;48.168;14.024;2023-06-26T14:10:31;33.30;46.70
38436;DHT22;24220;48.168;14.024;2023-06-26T14:13:03;33.20;45.10
38436;DHT22;24220;48.168;14.024;2023-06-26T14:15:31;33.20;45.70
38436;DHT22;24220;48.168;14.024;2023-06-26T14:17:58;33.10;45.00
38436;DHT22;24220;48.168;14.024;2023-06-26T14:20:26;33.10;44.80
38436;DHT22;24220;48.168;14.024;2023-06-26T14:22:54;33.00;45.30
38436;DHT22;24220;48.168;14.024;2023-06-26T14:25:22;33.00;44.60
38436;DHT22;24220;48.168;14.024;2023-06-26T14:27:51;32.90;44.10
38436;DHT22;24220;48.168;14.024;2023-06-26T14:30:21;32.90;43.20
38436;DHT22;24220;48.168;14.024;2023-06-26T14:32:48;32.90;43.60
38436;DHT22;24220;48.168;14.024;2023-06-26T14:35:18;32.80;44.20
38436;DHT22;24220;48.168;14.024;2023-06-26T14:37:48;32.80;42.80
38436;DHT22;24220;48.168;14.024;2023-06-26T14:40:16;32.70;44.40
38436;DHT22;24220;48.168;14.024;2023-06-26T14:42:44;32.70;44.80
38436;DHT22;24220;48.168;14.024;2023-06-26T14:45:13;32.60;45.20
38436;DHT22;24220;48.168;14.024;2023-06-26T14:47:43;32.60;44.50
38436;DHT22;24220;48.168;14.024;2023-06-26T14:50:10;32.60;45.00
38436;DHT22;24220;48.168;14.024;2023-06-26T14:52:42;32.60;44.50
38436;DHT22;24220;48.168;14.024;2023-06-26T14:55:10;32.50;44.30
38436;DHT22;24220;48.168;14.024;2023-06-26T14:57:37;32.60;43.90
38436;DHT22;24220;48.168;14.024;2023-06-26T15:00:05;32.60;43.20
38436;DHT22;24220;48.168;14.024;2023-06-26T15:02:33;32.50;43.60
38436;DHT22;24220;48.168;14.024;2023-06-26T15:05:01;32.50;44.20
38436;DHT22;24220;48.168;14.024;2023-06-26T15:07:30;32.50;44.20
38436;DHT22;24220;48.168;14.024;2023-06-26T15:09:58;32.50;44.70
38436;DHT22;24220;48.168;14.024;2023-06-26T15:12:28;32.40;44.50
38436;DHT22;24220;48.168;14.024;2023-06-26T15:14:55;32.40;44.60
38436;DHT22;24220;48.168;14.024;2023-06-26T15:17:25;32.40;44.30
38436;DHT22;24220;48.168;14.024;2023-06-26T15:19:53;32.40;45.40
38436;DHT22;24220;48.168;14.024;2023-06-26T15:22:22;32.40;45.10
38436;DHT22;24220;48.168;14.024;2023-06-26T15:24:49;32.40;45.40
38436;DHT22;24220;48.168;14.024;2023-06-26T15:27:17;32.40;45.90
38436;DHT22;24220;48.168;14.024;2023-06-26T15:29:44;32.40;45.40
38436;DHT22;24220;48.168;14.024;2023-06-26T15:32:11;32.40;44.90
38436;DHT22;24220;48.168;14.024;2023-06-26T15:34:39;32.40;44.80
38436;DHT22;24220;48.168;14.024;2023-06-26T15:37:08;32.40;44.60
38436;DHT22;24220;48.168;14.024;2023-06-26T15:39:36;32.40;44.70